sensor_id;sensor_type;location;lat;lon;timestamp;pressure;altitude;pressure_sealevel;temperature;humidity
45888;BME280;31595;51.418;7.572;2023-03-25T00:01:24;99045.75;;;9.65;77.52
45888;BME280;31595;51.418;7.572;2023-03-25T00:03:54;99048.44;;;9.62;78.02
45888;BME280;31595;51.418;7.572;2023-03-25T00:06:23;99041.72;;;9.63;76.91
45888;BME280;31595;51.418;7.572;2023-03-25T00:09:09;99049.16;;;9.71;76.34
45888;BME280;31595;51.418;7.572;2023-03-25T00:11:37;99050.28;;;9.70;76.12
45888;BME280;31595;51.418;7.572;2023-03-25T00:14:05;99042.53;;;9.75;76.32
45888;BME280;31595;51.418;7.572;2023-03-25T00:16:36;99048.81;;;9.72;74.85
45888;BME280;31595;51.418;7.572;2023-03-25T00:19:04;99045.94;;;9.81;74.93
45888;BME280;31595;51.418;7.572;2023-03-25T00:21:37;99039.09;;;9.79;74.65
45888;BME280;31595;51.418;7.572;2023-03-25T00:24:16;99033.41;;;9.75;73.61
45888;BME280;31595;51.418;7.572;2023-03-25T00:27:00;99041.88;;;9.79;73.83
45888;BME280;31595;51.418;7.572;2023-03-25T00:29:31;99035.47;;;9.78;72.69
45888;BME280;31595;51.418;7.572;2023-03-25T00:32:09;99029.22;;;9.69;73.63
45888;BME280;31595;51.418;7.572;2023-03-25T00:34:45;99034.44;;;9.70;73.43
45888;BME280;31595;51.418;7.572;2023-03-25T00:37:14;99031.28;;;9.72;72.33
45888;BME280;31595;51.418;7.572;2023-03-25T00:39:45;99031.63;;;9.58;72.87
45888;BME280;31595;51.418;7.572;2023-03-25T00:42:16;99048.44;;;9.62;71.79
45888;BME280;31595;51.418;7.572;2023-03-25T00:44:51;99038.13;;;9.62;72.46
45888;BME280;31595;51.418;7.572;2023-03-25T00:47:21;99033.47;;;9.54;72.59
45888;BME280;31595;51.418;7.572;2023-03-25T00:49:52;99048.78;;;9.60;72.52
45888;BME280;31595;51.418;7.572;2023-03-25T00:52:26;99028.88;;;9.70;72.61
45888;BME280;31595;51.418;7.572;2023-03-25T00:54:56;99026.00;;;9.79;71.37
45888;BME280;31595;51.418;7.572;2023-03-25T00:57:27;99026.00;;;9.79;71.78
45888;BME280;31595;51.418;7.572;2023-03-25T00:59:56;99029.25;;;9.81;72.14
45888;BME280;31595;51.418;7.572;2023-03-25T01:02:32;99023.09;;;9.88;70.49
45888;BME280;31595;51.418;7.572;2023-03-25T01:05:05;99027.97;;;9.91;71.42
45888;BME280;31595;51.418;7.572;2023-03-25T01:07:38;99031.00;;;9.98;70.99
45888;BME280;31595;51.418;7.572;2023-03-25T01:10:13;99024.28;;;9.99;70.87
45888;BME280;31595;51.418;7.572;2023-03-25T01:12:44;99028.34;;;10.02;70.88
45888;BME280;31595;51.418;7.572;2023-03-25T01:15:18;99027.06;;;10.11;71.27
45888;BME280;31595;51.418;7.572;2023-03-25T01:17:49;99020.91;;;10.18;68.94
45888;BME280;31595;51.418;7.572;2023-03-25T01:20:24;99027.78;;;10.21;69.69
45888;BME280;31595;51.418;7.572;2023-03-25T01:22:54;99024.06;;;10.16;69.06
45888;BME280;31595;51.418;7.572;2023-03-25T01:25:26;99021.03;;;10.22;70.08
45888;BME280;31595;51.418;7.572;2023-03-25T01:27:54;99021.75;;;10.19;69.42
45888;BME280;31595;51.418;7.572;2023-03-25T01:30:29;99025.94;;;10.25;69.04
45888;BME280;31595;51.418;7.572;2023-03-25T01:33:09;99025.94;;;10.25;69.36
45888;BME280;31595;51.418;7.572;2023-03-25T01:35:39;99016.28;;;10.22;69.53
45888;BME280;31595;51.418;7.572;2023-03-25T01:38:09;99014.09;;;10.28;68.81
45888;BME280;31595;51.418;7.572;2023-03-25T01:40:44;99016.06;;;10.27;69.62
45888;BME280;31595;51.418;7.572;2023-03-25T01:43:12;99015.84;;;10.32;68.49
45888;BME280;31595;51.418;7.572;2023-03-25T01:45:57;99026.66;;;10.34;69.27
45888;BME280;31595;51.418;7.572;2023-03-25T01:48:28;99011.00;;;10.29;68.33
45888;BME280;31595;51.418;7.572;2023-03-25T01:51:04;99008.88;;;10.26;68.84
45888;BME280;31595;51.418;7.572;2023-03-25T01:53:40;99006.09;;;10.26;68.17
45888;BME280;31595;51.418;7.572;2023-03-25T01:56:25;99028.47;;;10.18;68.93
45888;BME280;31595;51.418;7.572;2023-03-25T01:59:00;99009.56;;;10.23;68.74
45888;BME280;31595;51.418;7.572;2023-03-25T02:01:30;99005.75;;;10.15;67.58
45888;BME280;31595;51.418;7.572;2023-03-25T02:03:59;99002.03;;;10.24;67.18
45888;BME280;31595;51.418;7.572;2023-03-25T02:06:38;98996.25;;;10.16;67.93
45888;BME280;31595;51.418;7.572;2023-03-25T02:09:09;98989.38;;;10.14;67.31
45888;BME280;31595;51.418;7.572;2023-03-25T02:11:50;98981.63;;;10.20;67.14
45888;BME280;31595;51.418;7.572;2023-03-25T02:14:21;98992.88;;;10.23;66.38
45888;BME280;31595;51.418;7.572;2023-03-25T02:16:51;98985.78;;;10.26;65.83
45888;BME280;31595;51.418;7.572;2023-03-25T02:19:55;98986.25;;;10.28;65.54
45888;BME280;31595;51.418;7.572;2023-03-25T02:28:30;99001.22;;;10.23;65.47
45888;BME280;31595;51.418;7.572;2023-03-25T02:31:14;98988.56;;;10.26;64.63
45888;BME280;31595;51.418;7.572;2023-03-25T02:34:21;98990.91;;;10.24;65.15
45888;BME280;31595;51.418;7.572;2023-03-25T02:39:59;98993.44;;;10.29;64.41
45888;BME280;31595;51.418;7.572;2023-03-25T02:45:28;99003.66;;;10.37;65.20
45888;BME280;31595;51.418;7.572;2023-03-25T02:48:22;99003.44;;;10.42;64.94
45888;BME280;31595;51.418;7.572;2023-03-25T02:51:03;99007.75;;;10.40;64.55
45888;BME280;31595;51.418;7.572;2023-03-25T02:53:45;99000.19;;;10.40;64.12
45888;BME280;31595;51.418;7.572;2023-03-25T02:56:19;98998.94;;;10.50;66.00
45888;BME280;31595;51.418;7.572;2023-03-25T02:58:52;98994.03;;;10.47;65.98
45888;BME280;31595;51.418;7.572;2023-03-25T03:01:24;99006.34;;;10.46;65.17
45888;BME280;31595;51.418;7.572;2023-03-25T03:03:55;99005.84;;;10.56;65.86
45888;BME280;31595;51.418;7.572;2023-03-25T03:06:29;98998.34;;;10.56;65.24
45888;BME280;31595;51.418;7.572;2023-03-25T03:09:21;98994.72;;;10.56;65.87
45888;BME280;31595;51.418;7.572;2023-03-25T03:12:03;98988.34;;;10.43;67.55
45888;BME280;31595;51.418;7.572;2023-03-25T03:14:42;98994.25;;;10.54;67.65
45888;BME280;31595;51.418;7.572;2023-03-25T03:17:20;98988.59;;;10.50;67.48
45888;BME280;31595;51.418;7.572;2023-03-25T03:19:54;98990.00;;;10.44;65.52
45888;BME280;31595;51.418;7.572;2023-03-25T03:22:50;98990.78;;;10.45;65.72
45888;BME280;31595;51.418;7.572;2023-03-25T03:25:26;98984.91;;;10.34;65.36
45888;BME280;31595;51.418;7.572;2023-03-25T03:28:05;98991.97;;;10.31;65.17
45888;BME280;31595;51.418;7.572;2023-03-25T03:30:45;98989.53;;;10.30;64.25
45888;BME280;31595;51.418;7.572;2023-03-25T03:33:23;98994.59;;;10.28;63.95
45888;BME280;31595;51.418;7.572;2023-03-25T03:35:58;99000.06;;;10.24;63.62
45888;BME280;31595;51.418;7.572;2023-03-25T03:38:29;98992.06;;;10.35;63.89
45888;BME280;31595;51.418;7.572;2023-03-25T03:41:06;98994.75;;;10.44;64.34
45888;BME280;31595;51.418;7.572;2023-03-25T03:43:44;98988.94;;;10.49;64.54
45888;BME280;31595;51.418;7.572;2023-03-25T03:46:20;98978.84;;;10.44;64.06
45888;BME280;31595;51.418;7.572;2023-03-25T03:48:54;98989.50;;;10.54;64.09
45888;BME280;31595;51.418;7.572;2023-03-25T03:51:29;98983.38;;;10.49;63.22
45888;BME280;31595;51.418;7.572;2023-03-25T03:54:05;98986.81;;;10.58;62.91
45888;BME280;31595;51.418;7.572;2023-03-25T03:56:42;98992.31;;;10.54;62.91
45888;BME280;31595;51.418;7.572;2023-03-25T03:59:18;98994.97;;;10.51;62.85
45888;BME280;31595;51.418;7.572;2023-03-25T04:02:15;98989.66;;;10.46;63.36
45888;BME280;31595;51.418;7.572;2023-03-25T04:05:01;99010.63;;;10.43;63.28
45888;BME280;31595;51.418;7.572;2023-03-25T04:07:33;98996.38;;;10.45;64.74
45888;BME280;31595;51.418;7.572;2023-03-25T04:10:09;98985.94;;;10.42;64.79
45888;BME280;31595;51.418;7.572;2023-03-25T04:12:45;98989.28;;;10.47;64.76
45888;BME280;31595;51.418;7.572;2023-03-25T04:15:17;98998.69;;;10.43;63.90
45888;BME280;31595;51.418;7.572;2023-03-25T04:17:45;98987.66;;;10.46;65.13
45888;BME280;31595;51.418;7.572;2023-03-25T04:20:17;98994.38;;;10.45;65.12
45888;BME280;31595;51.418;7.572;2023-03-25T04:22:49;98984.53;;;10.48;65.49
45888;BME280;31595;51.418;7.572;2023-03-25T04:25:17;98974.69;;;10.38;64.81
45888;BME280;31595;51.418;7.572;2023-03-25T04:27:46;98980.69;;;10.28;65.14
45888;BME280;31595;51.418;7.572;2023-03-25T04:30:26;98980.22;;;10.26;64.59
45888;BME280;31595;51.418;7.572;2023-03-25T04:32:54;98983.00;;;10.13;64.66
45888;BME280;31595;51.418;7.572;2023-03-25T04:35:26;99000.19;;;10.15;64.09
45888;BME280;31595;51.418;7.572;2023-03-25T04:37:54;98992.75;;;10.07;63.72
45888;BME280;31595;51.418;7.572;2023-03-25T04:40:29;98988.25;;;10.03;64.49
45888;BME280;31595;51.418;7.572;2023-03-25T04:43:05;98987.78;;;10.01;63.72
45888;BME280;31595;51.418;7.572;2023-03-25T04:45:35;98996.00;;;9.97;63.85
45888;BME280;31595;51.418;7.572;2023-03-25T04:48:07;98998.31;;;10.07;63.12
45888;BME280;31595;51.418;7.572;2023-03-25T04:50:45;98992.06;;;10.10;63.95
45888;BME280;31595;51.418;7.572;2023-03-25T04:53:13;99008.88;;;10.14;63.37
45888;BME280;31595;51.418;7.572;2023-03-25T04:55:44;99003.19;;;10.10;63.86
45888;BME280;31595;51.418;7.572;2023-03-25T04:58:16;98993.69;;;10.11;64.46
45888;BME280;31595;51.418;7.572;2023-03-25T05:01:15;98988.81;;;10.08;65.53
45888;BME280;31595;51.418;7.572;2023-03-25T05:03:46;98987.66;;;9.97;65.52
45888;BME280;31595;51.418;7.572;2023-03-25T05:06:24;98990.53;;;9.88;66.08
45888;BME280;31595;51.418;7.572;2023-03-25T05:08:55;98990.41;;;9.85;65.32
45888;BME280;31595;51.418;7.572;2023-03-25T05:11:27;98991.13;;;9.82;65.96
45888;BME280;31595;51.418;7.572;2023-03-25T05:14:09;98979.41;;;9.76;66.86
45888;BME280;31595;51.418;7.572;2023-03-25T05:16:59;98974.91;;;9.84;66.02
45888;BME280;31595;51.418;7.572;2023-03-25T05:19:47;98973.50;;;9.78;66.33
45888;BME280;31595;51.418;7.572;2023-03-25T05:22:22;98980.00;;;9.82;67.01
45888;BME280;31595;51.418;7.572;2023-03-25T05:24:53;98983.25;;;9.84;66.83
45888;BME280;31595;51.418;7.572;2023-03-25T05:27:36;98994.38;;;9.84;66.45
45888;BME280;31595;51.418;7.572;2023-03-25T05:30:05;99004.69;;;9.83;65.73
45888;BME280;31595;51.418;7.572;2023-03-25T05:32:38;98984.97;;;9.88;65.93
45888;BME280;31595;51.418;7.572;2023-03-25T05:35:21;98980.34;;;9.92;66.04
45888;BME280;31595;51.418;7.572;2023-03-25T05:37:54;98990.88;;;9.99;65.71
45888;BME280;31595;51.418;7.572;2023-03-25T05:40:22;98992.19;;;10.02;64.29
45888;BME280;31595;51.418;7.572;2023-03-25T05:43:00;98992.53;;;10.00;64.42
45888;BME280;31595;51.418;7.572;2023-03-25T05:45:30;99003.66;;;10.00;65.36
45888;BME280;31595;51.418;7.572;2023-03-25T05:48:15;98996.91;;;9.89;66.05
45888;BME280;31595;51.418;7.572;2023-03-25T05:50:49;99006.56;;;9.91;67.95
45888;BME280;31595;51.418;7.572;2023-03-25T05:53:16;99010.13;;;9.92;68.08
45888;BME280;31595;51.418;7.572;2023-03-25T05:55:48;99004.88;;;9.78;68.32
45888;BME280;31595;51.418;7.572;2023-03-25T05:58:24;99008.38;;;9.75;69.59
45888;BME280;31595;51.418;7.572;2023-03-25T06:01:26;99012.44;;;9.78;70.04
45888;BME280;31595;51.418;7.572;2023-03-25T06:04:07;99009.44;;;9.83;70.09
45888;BME280;31595;51.418;7.572;2023-03-25T06:06:41;99000.97;;;9.79;69.35
45888;BME280;31595;51.418;7.572;2023-03-25T06:09:09;99012.66;;;9.85;69.61
45888;BME280;31595;51.418;7.572;2023-03-25T06:11:37;99012.09;;;9.79;69.49
45888;BME280;31595;51.418;7.572;2023-03-25T06:14:05;99009.44;;;9.83;68.52
45888;BME280;31595;51.418;7.572;2023-03-25T06:16:33;99007.34;;;9.92;68.53
45888;BME280;31595;51.418;7.572;2023-03-25T06:19:06;99024.97;;;9.96;67.47
45888;BME280;31595;51.418;7.572;2023-03-25T06:21:38;99016.63;;;9.96;68.09
45888;BME280;31595;51.418;7.572;2023-03-25T06:24:07;99024.50;;;9.94;67.36
45888;BME280;31595;51.418;7.572;2023-03-25T06:26:34;99017.06;;;9.86;67.28
45888;BME280;31595;51.418;7.572;2023-03-25T06:29:22;99025.44;;;9.98;68.05
45888;BME280;31595;51.418;7.572;2023-03-25T06:31:53;99034.22;;;9.88;68.23
45888;BME280;31595;51.418;7.572;2023-03-25T06:34:23;99020.34;;;10.00;67.81
45888;BME280;31595;51.418;7.572;2023-03-25T06:37:25;99020.13;;;10.18;67.58
45888;BME280;31595;51.418;7.572;2023-03-25T06:40:07;99009.91;;;10.22;66.95
45888;BME280;31595;51.418;7.572;2023-03-25T06:42:52;99006.25;;;10.30;66.49
45888;BME280;31595;51.418;7.572;2023-03-25T06:45:33;99001.25;;;10.35;66.29
45888;BME280;31595;51.418;7.572;2023-03-25T06:48:04;99004.38;;;10.46;65.60
45888;BME280;31595;51.418;7.572;2023-03-25T06:50:32;99025.25;;;10.52;65.41
45888;BME280;31595;51.418;7.572;2023-03-25T06:53:01;99019.09;;;10.34;66.40
45888;BME280;31595;51.418;7.572;2023-03-25T06:55:36;99018.47;;;10.29;66.68
45888;BME280;31595;51.418;7.572;2023-03-25T06:58:16;99019.44;;;10.21;66.52
45888;BME280;31595;51.418;7.572;2023-03-25T07:00:46;99029.19;;;10.27;66.42
45888;BME280;31595;51.418;7.572;2023-03-25T07:03:14;99025.00;;;10.33;66.60
45888;BME280;31595;51.418;7.572;2023-03-25T07:05:44;99019.69;;;10.52;65.87
45888;BME280;31595;51.418;7.572;2023-03-25T07:08:15;99021.41;;;10.69;65.79
45888;BME280;31595;51.418;7.572;2023-03-25T07:11:11;99037.38;;;10.72;65.06
45888;BME280;31595;51.418;7.572;2023-03-25T07:13:44;99040.44;;;10.55;67.92
45888;BME280;31595;51.418;7.572;2023-03-25T07:16:21;99032.19;;;10.59;69.04
45888;BME280;31595;51.418;7.572;2023-03-25T07:18:56;99037.91;;;10.38;69.66
45888;BME280;31595;51.418;7.572;2023-03-25T07:21:26;99050.97;;;10.37;70.32
45888;BME280;31595;51.418;7.572;2023-03-25T07:23:58;99055.28;;;10.34;70.73
45888;BME280;31595;51.418;7.572;2023-03-25T07:26:33;99041.69;;;10.33;71.69
45888;BME280;31595;51.418;7.572;2023-03-25T07:29:11;99048.19;;;10.25;70.70
45888;BME280;31595;51.418;7.572;2023-03-25T07:31:44;99058.13;;;10.13;70.91
45888;BME280;31595;51.418;7.572;2023-03-25T07:34:14;99060.00;;;10.22;71.25
45888;BME280;31595;51.418;7.572;2023-03-25T07:36:41;99054.66;;;10.29;70.61
45888;BME280;31595;51.418;7.572;2023-03-25T07:39:10;99049.38;;;10.36;70.36
45888;BME280;31595;51.418;7.572;2023-03-25T07:41:37;99063.03;;;10.41;70.37
45888;BME280;31595;51.418;7.572;2023-03-25T07:44:08;99069.78;;;10.40;69.65
45888;BME280;31595;51.418;7.572;2023-03-25T07:46:37;99058.53;;;10.49;69.29
45888;BME280;31595;51.418;7.572;2023-03-25T07:49:04;99058.53;;;10.49;67.90
45888;BME280;31595;51.418;7.572;2023-03-25T07:51:34;99061.09;;;10.42;68.22
45888;BME280;31595;51.418;7.572;2023-03-25T07:54:01;99063.03;;;10.53;67.52
45888;BME280;31595;51.418;7.572;2023-03-25T07:56:30;99055.81;;;10.77;67.43
45888;BME280;31595;51.418;7.572;2023-03-25T07:58:57;99054.22;;;11.16;66.44
45888;BME280;31595;51.418;7.572;2023-03-25T08:01:24;99052.06;;;11.38;64.58
45888;BME280;31595;51.418;7.572;2023-03-25T08:03:51;99061.91;;;11.48;63.70
45888;BME280;31595;51.418;7.572;2023-03-25T08:06:18;99052.69;;;11.75;63.24
45888;BME280;31595;51.418;7.572;2023-03-25T08:08:49;99055.75;;;11.70;62.33
45888;BME280;31595;51.418;7.572;2023-03-25T08:11:20;99047.31;;;11.83;61.22
45888;BME280;31595;51.418;7.572;2023-03-25T08:13:49;99054.31;;;11.76;61.26
45888;BME280;31595;51.418;7.572;2023-03-25T08:16:16;99053.47;;;11.88;60.60
45888;BME280;31595;51.418;7.572;2023-03-25T08:18:44;99067.31;;;11.85;60.97
45888;BME280;31595;51.418;7.572;2023-03-25T08:21:11;99059.69;;;11.69;60.14
45888;BME280;31595;51.418;7.572;2023-03-25T08:23:38;99074.41;;;11.54;60.40
45888;BME280;31595;51.418;7.572;2023-03-25T08:26:06;99071.28;;;11.55;59.76
45888;BME280;31595;51.418;7.572;2023-03-25T08:28:33;99066.41;;;11.81;58.98
45888;BME280;31595;51.418;7.572;2023-03-25T08:31:05;99069.13;;;11.65;58.63
45888;BME280;31595;51.418;7.572;2023-03-25T08:33:33;99084.03;;;11.85;57.97
45888;BME280;31595;51.418;7.572;2023-03-25T08:36:06;99061.91;;;11.76;57.81
45888;BME280;31595;51.418;7.572;2023-03-25T08:38:35;99075.13;;;11.51;58.79
45888;BME280;31595;51.418;7.572;2023-03-25T08:41:02;99083.84;;;11.49;58.55
45888;BME280;31595;51.418;7.572;2023-03-25T08:43:29;99087.59;;;11.41;58.80
45888;BME280;31595;51.418;7.572;2023-03-25T08:45:57;99078.16;;;11.46;59.38
45888;BME280;31595;51.418;7.572;2023-03-25T08:48:25;99067.00;;;11.46;59.29
45888;BME280;31595;51.418;7.572;2023-03-25T08:50:52;99083.75;;;11.46;58.65
45888;BME280;31595;51.418;7.572;2023-03-25T08:53:20;99073.25;;;11.55;58.46
45888;BME280;31595;51.418;7.572;2023-03-25T08:55:49;99081.50;;;12.08;57.34
45888;BME280;31595;51.418;7.572;2023-03-25T08:58:20;99068.94;;;12.49;55.46
45888;BME280;31595;51.418;7.572;2023-03-25T09:00:47;99062.44;;;13.90;53.00
45888;BME280;31595;51.418;7.572;2023-03-25T09:03:19;99079.06;;;13.83;52.25
45888;BME280;31595;51.418;7.572;2023-03-25T09:05:47;99062.88;;;14.15;51.49
45888;BME280;31595;51.418;7.572;2023-03-25T09:08:15;99059.88;;;13.62;52.52
45888;BME280;31595;51.418;7.572;2023-03-25T09:10:46;99073.09;;;13.42;52.47
45888;BME280;31595;51.418;7.572;2023-03-25T09:13:13;99059.34;;;13.17;53.12
45888;BME280;31595;51.418;7.572;2023-03-25T09:15:40;99049.53;;;13.08;53.77
45888;BME280;31595;51.418;7.572;2023-03-25T09:18:08;99053.53;;;13.07;52.70
45888;BME280;31595;51.418;7.572;2023-03-25T09:20:36;99064.22;;;12.85;53.98
45888;BME280;31595;51.418;7.572;2023-03-25T09:23:04;99060.22;;;12.67;53.30
45888;BME280;31595;51.418;7.572;2023-03-25T09:25:32;99051.50;;;12.88;54.32
45888;BME280;31595;51.418;7.572;2023-03-25T09:27:59;99058.34;;;12.90;53.22
45888;BME280;31595;51.418;7.572;2023-03-25T09:30:26;99064.16;;;13.36;52.86
45888;BME280;31595;51.418;7.572;2023-03-25T09:32:54;99056.13;;;13.74;52.33
45888;BME280;31595;51.418;7.572;2023-03-25T09:35:21;99054.59;;;14.99;49.07
45888;BME280;31595;51.418;7.572;2023-03-25T09:37:48;99065.88;;;14.76;49.15
45888;BME280;31595;51.418;7.572;2023-03-25T09:40:18;99061.19;;;14.34;49.84
45888;BME280;31595;51.418;7.572;2023-03-25T09:42:57;99065.19;;;14.10;50.33
45888;BME280;31595;51.418;7.572;2023-03-25T09:45:32;99052.22;;;14.01;50.12
45888;BME280;31595;51.418;7.572;2023-03-25T09:48:04;99059.50;;;14.06;50.14
45888;BME280;31595;51.418;7.572;2023-03-25T09:50:34;99046.56;;;13.98;51.62
45888;BME280;31595;51.418;7.572;2023-03-25T09:53:06;99072.09;;;13.73;51.37
45888;BME280;31595;51.418;7.572;2023-03-25T09:55:43;99041.59;;;16.71;45.54
45888;BME280;31595;51.418;7.572;2023-03-25T09:58:25;99034.63;;;18.40;41.73
45888;BME280;31595;51.418;7.572;2023-03-25T10:01:01;99053.09;;;18.77;40.38
45888;BME280;31595;51.418;7.572;2023-03-25T10:03:39;99056.34;;;18.68;39.89
45888;BME280;31595;51.418;7.572;2023-03-25T10:06:16;99040.13;;;17.75;42.36
45888;BME280;31595;51.418;7.572;2023-03-25T10:08:59;99054.16;;;17.54;42.06
45888;BME280;31595;51.418;7.572;2023-03-25T10:11:35;99051.53;;;18.36;40.14
45888;BME280;31595;51.418;7.572;2023-03-25T10:14:10;99038.50;;;17.67;41.62
45888;BME280;31595;51.418;7.572;2023-03-25T10:16:47;99054.78;;;16.63;42.90
45888;BME280;31595;51.418;7.572;2023-03-25T10:19:23;99046.81;;;16.20;44.08
45888;BME280;31595;51.418;7.572;2023-03-25T10:22:02;99056.78;;;16.14;43.95
45888;BME280;31595;51.418;7.572;2023-03-25T10:24:31;99051.84;;;16.00;43.93
45888;BME280;31595;51.418;7.572;2023-03-25T10:27:05;99048.19;;;16.41;43.57
45888;BME280;31595;51.418;7.572;2023-03-25T10:29:35;99057.75;;;16.33;43.62
45888;BME280;31595;51.418;7.572;2023-03-25T10:32:06;99063.69;;;15.83;44.80
45888;BME280;31595;51.418;7.572;2023-03-25T10:34:41;99062.00;;;17.19;43.69
45888;BME280;31595;51.418;7.572;2023-03-25T10:37:15;99056.16;;;16.83;43.09
45888;BME280;31595;51.418;7.572;2023-03-25T10:39:46;99057.00;;;16.36;44.77
45888;BME280;31595;51.418;7.572;2023-03-25T10:42:22;99057.50;;;16.04;45.30
45888;BME280;31595;51.418;7.572;2023-03-25T10:44:52;99076.72;;;15.68;45.57
45888;BME280;31595;51.418;7.572;2023-03-25T10:47:22;99058.78;;;16.58;44.76
45888;BME280;31595;51.418;7.572;2023-03-25T10:49:53;99084.56;;;16.71;43.94
45888;BME280;31595;51.418;7.572;2023-03-25T10:52:21;99060.94;;;16.31;45.04
45888;BME280;31595;51.418;7.572;2023-03-25T10:54:52;99081.06;;;15.62;45.76
45888;BME280;31595;51.418;7.572;2023-03-25T10:57:25;99071.53;;;15.36;46.08
45888;BME280;31595;51.418;7.572;2023-03-25T10:59:58;99066.44;;;16.13;44.76
45888;BME280;31595;51.418;7.572;2023-03-25T11:02:28;99063.50;;;17.87;40.50
45888;BME280;31595;51.418;7.572;2023-03-25T11:04:59;99074.09;;;18.90;38.23
45888;BME280;31595;51.418;7.572;2023-03-25T11:07:31;99065.94;;;19.21;38.62
45888;BME280;31595;51.418;7.572;2023-03-25T11:10:17;99066.50;;;17.31;41.73
45888;BME280;31595;51.418;7.572;2023-03-25T11:12:49;99077.41;;;17.40;41.73
45888;BME280;31595;51.418;7.572;2023-03-25T11:15:20;99054.72;;;18.45;40.16
45888;BME280;31595;51.418;7.572;2023-03-25T11:17:55;99063.78;;;21.94;34.57
45888;BME280;31595;51.418;7.572;2023-03-25T11:20:27;99076.47;;;21.13;34.28
45888;BME280;31595;51.418;7.572;2023-03-25T11:23:02;99085.38;;;18.86;38.39
45888;BME280;31595;51.418;7.572;2023-03-25T11:25:35;99082.63;;;19.93;39.96
45888;BME280;31595;51.418;7.572;2023-03-25T11:28:13;99080.16;;;20.02;40.29
45888;BME280;31595;51.418;7.572;2023-03-25T11:34:03;99096.91;;;16.11;48.89
45888;BME280;31595;51.418;7.572;2023-03-25T11:36:31;99099.84;;;15.58;53.59
45888;BME280;31595;51.418;7.572;2023-03-25T11:39:01;99094.84;;;15.10;53.68
45888;BME280;31595;51.418;7.572;2023-03-25T11:41:30;99102.66;;;14.71;54.91
45888;BME280;31595;51.418;7.572;2023-03-25T11:44:01;99099.31;;;14.61;54.29
45888;BME280;31595;51.418;7.572;2023-03-25T11:46:28;99089.81;;;14.70;55.09
45888;BME280;31595;51.418;7.572;2023-03-25T11:48:58;99098.16;;;15.19;54.30
45888;BME280;31595;51.418;7.572;2023-03-25T11:51:34;99087.28;;;15.45;52.75
45888;BME280;31595;51.418;7.572;2023-03-25T11:54:07;99091.41;;;15.24;52.70
45888;BME280;31595;51.418;7.572;2023-03-25T11:56:37;99076.81;;;15.11;53.19
45888;BME280;31595;51.418;7.572;2023-03-25T11:59:15;99074.28;;;15.02;53.38
45888;BME280;31595;51.418;7.572;2023-03-25T12:01:45;99086.56;;;14.68;53.85
45888;BME280;31595;51.418;7.572;2023-03-25T12:04:17;99081.53;;;14.31;56.23
45888;BME280;31595;51.418;7.572;2023-03-25T12:06:57;99086.59;;;14.21;56.69
45888;BME280;31595;51.418;7.572;2023-03-25T12:09:26;99092.97;;;13.99;57.82
45888;BME280;31595;51.418;7.572;2023-03-25T12:12:06;99115.09;;;13.85;59.15
45888;BME280;31595;51.418;7.572;2023-03-25T12:14:48;99118.47;;;13.35;61.46
45888;BME280;31595;51.418;7.572;2023-03-25T12:17:26;99108.47;;;13.34;62.62
45888;BME280;31595;51.418;7.572;2023-03-25T12:20:04;99088.25;;;16.79;54.74
45888;BME280;31595;51.418;7.572;2023-03-25T12:22:50;99076.88;;;18.25;50.58
45888;BME280;31595;51.418;7.572;2023-03-25T12:25:24;99072.06;;;17.17;50.60
45888;BME280;31595;51.418;7.572;2023-03-25T12:28:14;99071.25;;;18.15;48.52
45888;BME280;31595;51.418;7.572;2023-03-25T12:30:53;99087.53;;;16.82;49.41
45888;BME280;31595;51.418;7.572;2023-03-25T12:33:35;99082.59;;;15.56;52.15
45888;BME280;31595;51.418;7.572;2023-03-25T12:39:03;99096.69;;;14.26;58.67
45888;BME280;31595;51.418;7.572;2023-03-25T12:41:40;99127.53;;;14.30;59.12
45888;BME280;31595;51.418;7.572;2023-03-25T12:44:17;99098.47;;;14.38;58.10
45888;BME280;31595;51.418;7.572;2023-03-25T12:47:13;99098.84;;;14.13;57.90
45888;BME280;31595;51.418;7.572;2023-03-25T12:49:58;99064.94;;;17.44;51.37
45888;BME280;31595;51.418;7.572;2023-03-25T12:52:36;99055.28;;;21.25;40.97
45888;BME280;31595;51.418;7.572;2023-03-25T12:55:34;99068.84;;;24.11;34.58
45888;BME280;31595;51.418;7.572;2023-03-25T12:58:30;99049.03;;;27.05;29.80
45888;BME280;31595;51.418;7.572;2023-03-25T13:01:08;99059.72;;;26.79;29.17
45888;BME280;31595;51.418;7.572;2023-03-25T13:03:50;99054.97;;;25.70;30.05
45888;BME280;31595;51.418;7.572;2023-03-25T13:06:27;99065.56;;;26.37;29.35
45888;BME280;31595;51.418;7.572;2023-03-25T13:09:01;99049.41;;;27.29;27.93
45888;BME280;31595;51.418;7.572;2023-03-25T13:11:34;99060.81;;;24.06;31.23
45888;BME280;31595;51.418;7.572;2023-03-25T13:14:08;99045.09;;;25.00;30.92
45888;BME280;31595;51.418;7.572;2023-03-25T13:16:39;99044.78;;;26.37;28.73
45888;BME280;31595;51.418;7.572;2023-03-25T13:19:12;99040.84;;;27.51;27.33
45888;BME280;31595;51.418;7.572;2023-03-25T13:21:44;99036.13;;;24.19;31.00
45888;BME280;31595;51.418;7.572;2023-03-25T13:24:18;99031.69;;;25.71;29.35
45888;BME280;31595;51.418;7.572;2023-03-25T13:26:48;99031.19;;;25.89;28.85
45888;BME280;31595;51.418;7.572;2023-03-25T13:29:18;99044.56;;;24.23;29.20
45888;BME280;31595;51.418;7.572;2023-03-25T13:31:49;99027.47;;;24.59;30.20
45888;BME280;31595;51.418;7.572;2023-03-25T13:34:25;99027.31;;;24.14;29.80
45888;BME280;31595;51.418;7.572;2023-03-25T13:37:10;99034.63;;;21.28;33.13
45888;BME280;31595;51.418;7.572;2023-03-25T13:39:53;99038.31;;;19.82;36.13
45888;BME280;31595;51.418;7.572;2023-03-25T13:42:25;99032.16;;;18.96;38.72
45888;BME280;31595;51.418;7.572;2023-03-25T13:44:55;99027.34;;;18.24;40.33
45888;BME280;31595;51.418;7.572;2023-03-25T13:47:29;99048.13;;;17.62;45.88
45888;BME280;31595;51.418;7.572;2023-03-25T13:50:05;99107.59;;;17.47;44.72
45888;BME280;31595;51.418;7.572;2023-03-25T13:52:36;99064.59;;;17.50;43.60
45888;BME280;31595;51.418;7.572;2023-03-25T13:55:12;99067.16;;;16.51;44.78
45888;BME280;31595;51.418;7.572;2023-03-25T13:58:06;99063.34;;;16.29;46.32